Time;durP1;ratioP1;P1;durP2;ratioP2;P2;SDS_P1;SDS_P2;PMS_P1;PMS_P2;Temp;Humidity;BMP_temperature;BMP_pressure;BME280_temperature;BME280_humidity;BME280_pressure;Samples;Min_cycle;Max_cycle;Signal;HPM_P1;HPM_P2
2021/10/13 00:00:19;;;;;;;;;;;13.10;38.30;;;;;;4358713;32;19963;-38
2021/10/13 00:02:46;;;;;;;;;;;13.10;38.40;;;;;;4344997;32;19971;-38
2021/10/13 00:05:12;;;;;;;;;;;13.20;38.30;;;;;;4358736;32;20055;-37
2021/10/13 00:07:38;;;;;;;;;;;13.20;38.20;;;;;;4344300;32;20063;-37
2021/10/13 00:10:05;;;;;;;;;;;13.20;38.10;;;;;;4358556;32;19969;-37
2021/10/13 00:12:34;;;;;;;;;;;13.20;38.00;;;;;;4359072;32;20013;-38
2021/10/13 00:15:03;;;;;;;;;;;13.20;37.90;;;;;;4326267;33;20416;-38
2021/10/13 00:17:29;;;;;;;;;;;13.20;37.70;;;;;;4326480;33;19997;-38
2021/10/13 00:19:55;;;;;;;;;;;13.30;37.70;;;;;;4326430;33;19974;-39
2021/10/13 00:22:21;;;;;;;;;;;13.30;37.50;;;;;;4326562;33;20060;-37
2021/10/13 00:24:47;;;;;;;;;;;13.40;37.40;;;;;;4326966;33;19971;-37
2021/10/13 00:27:13;;;;;;;;;;;13.40;37.30;;;;;;4326199;33;20442;-37
2021/10/13 00:29:39;;;;;;;;;;;13.50;37.20;;;;;;4326499;33;19977;-37
2021/10/13 00:32:06;;;;;;;;;;;13.50;37.00;;;;;;4326623;33;19971;-38
2021/10/13 00:34:32;;;;;;;;;;;13.60;37.00;;;;;;4326697;33;20556;-38
2021/10/13 00:36:59;;;;;;;;;;;13.60;36.90;;;;;;4314296;33;19972;-37
2021/10/13 00:39:25;;;;;;;;;;;13.60;36.70;;;;;;4326569;33;20002;-38
2021/10/13 00:41:51;;;;;;;;;;;13.60;36.60;;;;;;4326488;33;19990;-38
2021/10/13 00:44:17;;;;;;;;;;;13.70;36.60;;;;;;4326206;33;19975;-38
2021/10/13 00:46:43;;;;;;;;;;;13.60;36.50;;;;;;4326024;33;19971;-37
2021/10/13 00:49:09;;;;;;;;;;;13.70;36.50;;;;;;4326650;33;19974;-38
2021/10/13 00:51:36;;;;;;;;;;;13.70;36.40;;;;;;4331288;32;20005;-38
2021/10/13 00:54:02;;;;;;;;;;;13.70;36.30;;;;;;4332576;32;19970;-38
2021/10/13 00:56:28;;;;;;;;;;;13.70;36.30;;;;;;4358137;32;20054;-38
2021/10/13 00:58:54;;;;;;;;;;;13.70;36.20;;;;;;4358308;32;20448;-38
2021/10/13 01:01:33;;;;;;;;;;;13.70;36.70;;;;;;4358449;32;20536;-37
2021/10/13 01:04:12;;;;;;;;;;;13.70;35.90;;;;;;4358427;32;19974;-37
2021/10/13 01:06:57;;;;;;;;;;;13.70;35.60;;;;;;4344544;32;19974;-37
2021/10/13 01:09:29;;;;;;;;;;;13.80;35.50;;;;;;4344954;32;19986;-38
2021/10/13 01:12:07;;;;;;;;;;;13.90;35.50;;;;;;4358512;32;20088;-38
2021/10/13 01:14:40;;;;;;;;;;;13.90;35.50;;;;;;4358474;32;20388;-38
2021/10/13 01:17:20;;;;;;;;;;;14.00;35.40;;;;;;4345060;32;19959;-38
2021/10/13 01:19:46;;;;;;;;;;;14.00;35.30;;;;;;4344089;33;19959;-39
2021/10/13 01:22:25;;;;;;;;;;;14.10;35.30;;;;;;4347281;32;19958;-38
2021/10/13 01:25:30;;;;;;;;;;;14.10;35.20;;;;;;4346225;32;19986;-38
2021/10/13 01:28:02;;;;;;;;;;;14.10;35.20;;;;;;4345413;33;20056;-38
2021/10/13 01:30:34;;;;;;;;;;;14.10;35.10;;;;;;4346331;32;20051;-37
2021/10/13 01:33:08;;;;;;;;;;;14.20;35.10;;;;;;4346310;32;19982;-38
2021/10/13 01:35:36;;;;;;;;;;;14.20;35.00;;;;;;4346089;32;19967;-38
2021/10/13 01:38:04;;;;;;;;;;;14.20;35.00;;;;;;4345981;32;19983;-38
2021/10/13 01:40:32;;;;;;;;;;;14.20;35.00;;;;;;4344662;33;19978;-38
2021/10/13 01:43:00;;;;;;;;;;;14.20;34.90;;;;;;4332771;33;19963;-37
2021/10/13 01:45:26;;;;;;;;;;;14.20;34.90;;;;;;4344354;33;19981;-38
2021/10/13 01:47:53;;;;;;;;;;;14.20;34.80;;;;;;4345446;32;20057;-37
2021/10/13 01:50:19;;;;;;;;;;;14.30;34.90;;;;;;4344453;33;20439;-38
2021/10/13 01:52:48;;;;;;;;;;;14.30;34.80;;;;;;4345821;32;20416;-37
2021/10/13 01:55:15;;;;;;;;;;;14.30;34.70;;;;;;4346368;32;19978;-38
2021/10/13 01:57:44;;;;;;;;;;;14.30;34.70;;;;;;4331042;33;19986;-38
2021/10/13 02:00:10;;;;;;;;;;;14.30;34.70;;;;;;4331277;33;19966;-37
2021/10/13 02:02:37;;;;;;;;;;;14.40;34.70;;;;;;4331021;33;20014;-38
2021/10/13 02:05:04;;;;;;;;;;;14.40;34.60;;;;;;4331168;33;19989;-37
2021/10/13 02:07:30;;;;;;;;;;;14.40;34.50;;;;;;4343085;33;20434;-37
2021/10/13 02:10:06;;;;;;;;;;;14.50;34.50;;;;;;4331004;33;20063;-38
2021/10/13 02:12:33;;;;;;;;;;;14.50;34.50;;;;;;4343270;33;19990;-38
2021/10/13 02:15:00;;;;;;;;;;;14.50;34.40;;;;;;4342970;33;20391;-37
2021/10/13 02:17:27;;;;;;;;;;;14.60;34.40;;;;;;4343097;33;20032;-38
2021/10/13 02:19:53;;;;;;;;;;;14.60;34.20;;;;;;4342738;33;19963;-38
2021/10/13 02:22:19;;;;;;;;;;;14.60;34.10;;;;;;4330878;33;20455;-38
2021/10/13 02:24:49;;;;;;;;;;;14.70;34.10;;;;;;4330813;33;19973;-43
2021/10/13 02:27:33;;;;;;;;;;;14.70;34.00;;;;;;4330774;33;19982;-38
2021/10/13 02:30:00;;;;;;;;;;;14.70;34.00;;;;;;4342740;32;20532;-39
2021/10/13 02:32:26;;;;;;;;;;;14.70;33.90;;;;;;4342732;33;19978;-37
2021/10/13 02:34:53;;;;;;;;;;;14.70;33.90;;;;;;4334446;33;20415;-37
2021/10/13 02:37:22;;;;;;;;;;;14.70;33.90;;;;;;4331883;33;19959;-38
2021/10/13 02:39:48;;;;;;;;;;;14.70;33.90;;;;;;4345082;32;19974;-38
2021/10/13 02:42:14;;;;;;;;;;;14.80;33.90;;;;;;4345260;33;20418;-38
2021/10/13 02:44:41;;;;;;;;;;;14.80;33.90;;;;;;4345119;32;19979;-38
2021/10/13 02:47:13;;;;;;;;;;;14.70;33.80;;;;;;4355696;32;19962;-38
2021/10/13 02:50:26;;;;;;;;;;;14.70;33.90;;;;;;4359218;32;20446;-38
2021/10/13 02:53:02;;;;;;;;;;;14.70;33.90;;;;;;4312735;33;19968;-39
2021/10/13 02:55:36;;;;;;;;;;;14.70;34.00;;;;;;4313222;33;20460;-38
2021/10/13 02:58:10;;;;;;;;;;;14.70;34.10;;;;;;4313206;33;20422;-38
2021/10/13 03:00:36;;;;;;;;;;;14.70;34.20;;;;;;4301026;33;19967;-39
2021/10/13 03:03:08;;;;;;;;;;;14.60;34.30;;;;;;4300678;33;19971;-38
2021/10/13 03:05:36;;;;;;;;;;;14.60;34.40;;;;;;4313393;33;19976;-38
2021/10/13 03:08:03;;;;;;;;;;;14.50;34.50;;;;;;4301114;33;19967;-40
2021/10/13 03:10:29;;;;;;;;;;;14.50;34.60;;;;;;4313189;33;19975;-38
2021/10/13 03:12:57;;;;;;;;;;;14.50;34.70;;;;;;4312869;33;19972;-38
2021/10/13 03:15:24;;;;;;;;;;;14.50;34.80;;;;;;4298048;33;19979;-38
2021/10/13 03:17:55;;;;;;;;;;;14.50;34.90;;;;;;4298764;33;19963;-39
2021/10/13 03:20:21;;;;;;;;;;;14.40;34.90;;;;;;4297991;33;19964;-38
2021/10/13 03:22:48;;;;;;;;;;;14.50;34.90;;;;;;4297961;33;19990;-38
2021/10/13 03:25:22;;;;;;;;;;;14.50;34.90;;;;;;4297834;33;19975;-38
2021/10/13 03:27:48;;;;;;;;;;;14.50;34.90;;;;;;4308514;33;19972;-38
2021/10/13 03:30:14;;;;;;;;;;;14.40;34.90;;;;;;4329417;33;20512;-39
2021/10/13 03:32:44;;;;;;;;;;;14.40;35.10;;;;;;4341522;33;20463;-38
2021/10/13 03:35:10;;;;;;;;;;;14.40;35.20;;;;;;4341848;33;19974;-38
2021/10/13 03:37:36;;;;;;;;;;;14.40;35.20;;;;;;4342170;33;19963;-37
2021/10/13 03:40:03;;;;;;;;;;;14.40;35.30;;;;;;4341711;33;19971;-38
2021/10/13 03:42:29;;;;;;;;;;;14.40;35.20;;;;;;4341331;33;20083;-38
2021/10/13 03:44:55;;;;;;;;;;;14.60;35.20;;;;;;4342461;33;20013;-37
2021/10/13 03:47:22;;;;;;;;;;;14.60;35.20;;;;;;4327783;33;20109;-38
2021/10/13 03:49:48;;;;;;;;;;;14.80;35.10;;;;;;4327323;33;19986;-37
2021/10/13 03:52:14;;;;;;;;;;;14.90;35.00;;;;;;4320191;33;20002;-38
2021/10/13 03:54:40;;;;;;;;;;;15.00;34.90;;;;;;4344140;32;19993;-38
2021/10/13 03:57:06;;;;;;;;;;;15.20;34.80;;;;;;4344209;32;20427;-36
2021/10/13 03:59:32;;;;;;;;;;;15.30;34.60;;;;;;4342661;33;20411;-38
2021/10/13 04:01:58;;;;;;;;;;;15.40;34.30;;;;;;4344128;32;19974;-38
2021/10/13 04:04:25;;;;;;;;;;;15.60;34.10;;;;;;4344643;32;19979;-38
2021/10/13 04:06:51;;;;;;;;;;;15.70;33.70;;;;;;4343076;33;19986;-39
2021/10/13 04:09:17;;;;;;;;;;;15.90;33.50;;;;;;4343789;32;19982;-38
2021/10/13 04:11:43;;;;;;;;;;;16.10;33.00;;;;;;4344171;32;19969;-38
2021/10/13 04:14:09;;;;;;;;;;;16.20;32.50;;;;;;4343809;32;19977;-38
2021/10/13 04:16:36;;;;;;;;;;;16.30;32.10;;;;;;4343315;32;20014;-39
2021/10/13 04:19:02;;;;;;;;;;;16.50;32.00;;;;;;4343797;32;20052;-39
2021/10/13 04:21:28;;;;;;;;;;;16.60;31.90;;;;;;4345315;32;19962;-37
2021/10/13 04:23:54;;;;;;;;;;;16.80;31.80;;;;;;4359274;32;19985;-39
2021/10/13 04:26:20;;;;;;;;;;;16.90;31.70;;;;;;4344754;32;20034;-39
2021/10/13 04:28:47;;;;;;;;;;;17.20;31.60;;;;;;4358959;32;19997;-38
2021/10/13 04:31:15;;;;;;;;;;;17.30;31.10;;;;;;4359267;32;20063;-38
2021/10/13 04:33:41;;;;;;;;;;;17.50;31.00;;;;;;4358528;32;20336;-38
2021/10/13 04:36:07;;;;;;;;;;;17.70;30.80;;;;;;4358806;32;19982;-39
2021/10/13 04:38:33;;;;;;;;;;;17.90;30.60;;;;;;4358982;32;20178;-37
2021/10/13 04:40:59;;;;;;;;;;;18.00;30.60;;;;;;4358539;32;20022;-38
2021/10/13 04:43:26;;;;;;;;;;;18.20;30.50;;;;;;4359131;32;19971;-37
2021/10/13 04:45:52;;;;;;;;;;;18.40;30.30;;;;;;4347265;32;20091;-38
2021/10/13 04:48:18;;;;;;;;;;;18.60;30.00;;;;;;4358854;32;20001;-40
2021/10/13 04:50:44;;;;;;;;;;;18.80;30.00;;;;;;4358599;32;20043;-37
2021/10/13 04:53:10;;;;;;;;;;;19.00;30.00;;;;;;4360192;32;19974;-37
2021/10/13 04:55:36;;;;;;;;;;;19.30;29.50;;;;;;4361294;32;19974;-38
2021/10/13 04:58:03;;;;;;;;;;;19.50;29.50;;;;;;4361694;32;20383;-40
2021/10/13 05:00:29;;;;;;;;;;;19.80;29.50;;;;;;4361490;32;20407;-37
2021/10/13 05:02:55;;;;;;;;;;;20.00;29.40;;;;;;4361721;32;20045;-37
2021/10/13 05:05:21;;;;;;;;;;;20.30;29.30;;;;;;4359747;32;20047;-38
2021/10/13 05:07:49;;;;;;;;;;;20.60;29.10;;;;;;4361262;32;20091;-39
2021/10/13 05:10:15;;;;;;;;;;;20.80;28.50;;;;;;4361336;32;20091;-39
2021/10/13 05:12:41;;;;;;;;;;;21.00;28.40;;;;;;4361363;32;20075;-39
2021/10/13 05:15:08;;;;;;;;;;;21.30;28.40;;;;;;4361428;32;20403;-38
2021/10/13 05:17:34;;;;;;;;;;;21.60;28.10;;;;;;4343706;33;19985;-39
2021/10/13 05:20:00;;;;;;;;;;;21.90;27.90;;;;;;4343806;33;19975;-37
2021/10/13 05:22:26;;;;;;;;;;;22.20;27.60;;;;;;4344104;33;20025;-38
2021/10/13 05:24:53;;;;;;;;;;;22.50;27.40;;;;;;4343556;33;19970;-37
2021/10/13 05:27:19;;;;;;;;;;;22.80;26.90;;;;;;4343669;33;20856;-37
2021/10/13 05:29:45;;;;;;;;;;;23.20;26.80;;;;;;4343939;33;20061;-38
2021/10/13 05:32:11;;;;;;;;;;;23.50;26.50;;;;;;4343312;33;19978;-38
2021/10/13 05:34:37;;;;;;;;;;;23.90;25.60;;;;;;4343607;33;20002;-38
2021/10/13 05:37:03;;;;;;;;;;;24.30;25.80;;;;;;4343525;33;19963;-36
2021/10/13 05:39:30;;;;;;;;;;;24.60;25.80;;;;;;4343467;33;20091;-37
2021/10/13 05:41:56;;;;;;;;;;;24.90;25.30;;;;;;4343570;33;19993;-37
2021/10/13 05:44:23;;;;;;;;;;;25.20;24.70;;;;;;4343540;33;19975;-37
2021/10/13 05:46:49;;;;;;;;;;;25.60;24.80;;;;;;4332444;33;20535;-36
2021/10/13 05:49:15;;;;;;;;;;;25.80;24.90;;;;;;4353785;32;19978;-36
2021/10/13 05:51:41;;;;;;;;;;;26.10;24.80;;;;;;4360482;32;20030;-37
2021/10/13 05:54:07;;;;;;;;;;;26.40;24.60;;;;;;4360814;32;19989;-36
2021/10/13 05:56:33;;;;;;;;;;;26.60;24.20;;;;;;4360563;32;20378;-37
2021/10/13 05:59:00;;;;;;;;;;;26.90;24.10;;;;;;4360919;32;20129;-36
2021/10/13 06:01:26;;;;;;;;;;;27.20;24.00;;;;;;4334609;32;19962;-37
2021/10/13 06:03:52;;;;;;;;;;;27.50;23.50;;;;;;4346464;32;19973;-37
2021/10/13 06:06:19;;;;;;;;;;;27.90;23.30;;;;;;4359995;32;20452;-38
2021/10/13 06:08:45;;;;;;;;;;;28.20;22.80;;;;;;4360743;32;19978;-37
2021/10/13 06:11:11;;;;;;;;;;;28.40;22.60;;;;;;4360426;32;20426;-37
2021/10/13 06:13:39;;;;;;;;;;;28.70;22.70;;;;;;4346413;32;19998;-37
2021/10/13 06:16:07;;;;;;;;;;;28.80;22.50;;;;;;4360073;32;20462;-37
2021/10/13 06:18:34;;;;;;;;;;;29.00;22.20;;;;;;4360096;32;20390;-38
2021/10/13 06:21:00;;;;;;;;;;;29.30;22.20;;;;;;4359799;32;20390;-36
2021/10/13 06:23:26;;;;;;;;;;;29.40;22.00;;;;;;4360311;32;20403;-37
2021/10/13 06:25:53;;;;;;;;;;;29.40;22.20;;;;;;4346231;32;20470;-38
2021/10/13 06:28:19;;;;;;;;;;;29.40;22.20;;;;;;4360106;32;19966;-38
2021/10/13 06:30:45;;;;;;;;;;;29.30;22.20;;;;;;4359769;32;19989;-37
2021/10/13 06:33:11;;;;;;;;;;;29.20;22.20;;;;;;4360080;32;19981;-37
2021/10/13 06:35:37;;;;;;;;;;;28.90;22.40;;;;;;4360144;32;19970;-37
2021/10/13 06:38:03;;;;;;;;;;;28.80;22.30;;;;;;4360197;32;19966;-38
2021/10/13 06:40:30;;;;;;;;;;;28.90;22.40;;;;;;4359793;32;20000;-38
2021/10/13 06:42:56;;;;;;;;;;;29.00;22.40;;;;;;4359910;32;20092;-37
2021/10/13 06:45:22;;;;;;;;;;;29.10;22.10;;;;;;4361810;32;19977;-37
2021/10/13 06:47:48;;;;;;;;;;;29.40;22.00;;;;;;4374887;32;19959;-36
2021/10/13 06:50:15;;;;;;;;;;;29.60;22.00;;;;;;4374994;32;19977;-37
2021/10/13 06:52:41;;;;;;;;;;;29.70;22.00;;;;;;4374535;32;20008;-38
2021/10/13 06:55:09;;;;;;;;;;;29.70;21.90;;;;;;4374655;32;20074;-36
2021/10/13 06:57:36;;;;;;;;;;;29.60;22.10;;;;;;4375154;32;19976;-37
2021/10/13 07:00:04;;;;;;;;;;;29.70;21.70;;;;;;4375017;32;19970;-45
2021/10/13 07:02:30;;;;;;;;;;;29.80;21.70;;;;;;4374685;32;19975;-37
2021/10/13 07:04:56;;;;;;;;;;;29.80;21.60;;;;;;4374404;32;19990;-36
2021/10/13 07:07:23;;;;;;;;;;;29.90;21.60;;;;;;4373921;32;19970;-37
2021/10/13 07:09:49;;;;;;;;;;;30.00;21.50;;;;;;4374608;32;20496;-37
2021/10/13 07:12:15;;;;;;;;;;;30.10;21.50;;;;;;4374549;32;19970;-37
2021/10/13 07:14:42;;;;;;;;;;;30.20;21.60;;;;;;4374096;32;19966;-38
2021/10/13 07:17:08;;;;;;;;;;;30.30;21.50;;;;;;4374320;32;20046;-38
2021/10/13 07:19:34;;;;;;;;;;;30.40;21.50;;;;;;4374345;32;19958;-38
2021/10/13 07:22:02;;;;;;;;;;;30.50;21.50;;;;;;4374580;32;19969;-37
2021/10/13 07:24:28;;;;;;;;;;;30.70;21.50;;;;;;4374259;32;20099;-37
2021/10/13 07:26:54;;;;;;;;;;;30.90;21.40;;;;;;4374011;32;19996;-37
2021/10/13 07:29:20;;;;;;;;;;;31.10;21.60;;;;;;4373892;32;20127;-38
2021/10/13 07:31:47;;;;;;;;;;;31.10;21.80;;;;;;4360421;32;19973;-37
2021/10/13 07:34:13;;;;;;;;;;;31.10;22.00;;;;;;4374264;32;19989;-38
2021/10/13 07:36:39;;;;;;;;;;;31.30;21.70;;;;;;4374303;32;20070;-38
2021/10/13 07:39:05;;;;;;;;;;;31.50;21.30;;;;;;4374029;32;20455;-40
2021/10/13 07:41:32;;;;;;;;;;;31.70;21.20;;;;;;4374194;32;19988;-39
2021/10/13 07:43:58;;;;;;;;;;;31.90;21.10;;;;;;4374004;32;19965;-38
2021/10/13 07:46:25;;;;;;;;;;;32.10;20.70;;;;;;4365767;32;19958;-38
2021/10/13 07:48:52;;;;;;;;;;;32.20;20.60;;;;;;4359173;32;19974;-37
2021/10/13 07:51:19;;;;;;;;;;;32.20;20.60;;;;;;4344948;32;19958;-38
2021/10/13 07:53:45;;;;;;;;;;;32.30;20.70;;;;;;4358872;32;19971;-37
2021/10/13 07:56:11;;;;;;;;;;;32.30;20.50;;;;;;4358767;32;20047;-37
2021/10/13 07:58:37;;;;;;;;;;;32.30;20.40;;;;;;4358811;32;20418;-39
2021/10/13 08:01:03;;;;;;;;;;;32.40;20.50;;;;;;4359491;32;21335;-37
2021/10/13 08:03:29;;;;;;;;;;;32.40;20.50;;;;;;4358525;32;20556;-39
2021/10/13 08:05:56;;;;;;;;;;;32.40;20.50;;;;;;4359254;32;20315;-38
2021/10/13 08:08:22;;;;;;;;;;;32.50;20.30;;;;;;4311679;33;19986;-39
2021/10/13 08:10:48;;;;;;;;;;;32.40;20.10;;;;;;4312275;33;19968;-38
2021/10/13 08:13:14;;;;;;;;;;;32.40;20.20;;;;;;4312244;33;19978;-39
2021/10/13 08:15:40;;;;;;;;;;;32.40;20.40;;;;;;4311655;33;19980;-39
2021/10/13 08:18:07;;;;;;;;;;;32.30;20.20;;;;;;4311954;33;19977;-37
2021/10/13 08:20:33;;;;;;;;;;;32.20;20.30;;;;;;4299528;33;19964;-38
2021/10/13 08:22:59;;;;;;;;;;;32.30;20.30;;;;;;4311775;33;20006;-38
2021/10/13 08:25:25;;;;;;;;;;;32.30;20.10;;;;;;4311843;33;20055;-37
2021/10/13 08:27:51;;;;;;;;;;;32.30;20.00;;;;;;4311636;33;19979;-38
2021/10/13 08:30:17;;;;;;;;;;;32.30;20.00;;;;;;4311656;33;20052;-38
2021/10/13 08:32:44;;;;;;;;;;;32.20;20.00;;;;;;4299983;33;20046;-37
2021/10/13 08:35:10;;;;;;;;;;;32.20;20.10;;;;;;4311761;33;20448;-40
2021/10/13 08:37:36;;;;;;;;;;;32.20;20.20;;;;;;4312032;33;20059;-38
2021/10/13 08:40:03;;;;;;;;;;;32.20;20.20;;;;;;4348214;32;20354;-37
2021/10/13 08:42:30;;;;;;;;;;;32.20;20.10;;;;;;4358630;32;20013;-38
2021/10/13 08:44:56;;;;;;;;;;;32.30;20.10;;;;;;4344630;32;20042;-38
2021/10/13 08:47:23;;;;;;;;;;;32.20;20.10;;;;;;4372831;32;20483;-38
2021/10/13 08:49:51;;;;;;;;;;;32.00;20.00;;;;;;4373279;32;20009;-39
2021/10/13 08:52:17;;;;;;;;;;;31.90;19.90;;;;;;4373464;32;20005;-38
2021/10/13 08:54:43;;;;;;;;;;;31.80;20.10;;;;;;4359747;32;19973;-38
2021/10/13 08:57:20;;;;;;;;;;;31.80;20.20;;;;;;4373762;32;20398;-40
2021/10/13 08:59:48;;;;;;;;;;;31.70;20.10;;;;;;4373490;32;19992;-38
2021/10/13 09:02:14;;;;;;;;;;;31.70;20.10;;;;;;4373176;32;19974;-37
2021/10/13 09:05:05;;;;;;;;;;;31.70;20.00;;;;;;4373112;32;20008;-38
2021/10/13 09:07:55;;;;;;;;;;;31.60;20.00;;;;;;4372568;32;19966;-39
2021/10/13 09:10:41;;;;;;;;;;;31.50;20.00;;;;;;4361653;32;20042;-38
2021/10/13 09:13:18;;;;;;;;;;;31.50;20.10;;;;;;4373833;32;19974;-37
2021/10/13 09:15:48;;;;;;;;;;;31.50;20.00;;;;;;4373001;32;19970;-38
2021/10/13 09:18:15;;;;;;;;;;;31.60;20.10;;;;;;4372857;32;19962;-38
2021/10/13 09:20:41;;;;;;;;;;;31.60;19.90;;;;;;4347238;32;20078;-38
2021/10/13 09:23:29;;;;;;;;;;;31.60;20.00;;;;;;4373573;32;19972;-38
2021/10/13 09:26:09;;;;;;;;;;;31.60;20.00;;;;;;4373176;32;20038;-38
2021/10/13 09:28:36;;;;;;;;;;;31.60;20.00;;;;;;4372891;32;19977;-39
2021/10/13 09:31:15;;;;;;;;;;;31.60;20.00;;;;;;4373030;32;19973;-38
2021/10/13 09:33:59;;;;;;;;;;;31.60;19.80;;;;;;4373144;32;19966;-41
2021/10/13 09:36:38;;;;;;;;;;;31.70;19.80;;;;;;4359020;32;19988;-38
2021/10/13 09:39:15;;;;;;;;;;;31.70;19.80;;;;;;4373431;32;19989;-38
2021/10/13 09:42:12;;;;;;;;;;;31.70;19.80;;;;;;4376384;32;20462;-37
2021/10/13 09:44:59;;;;;;;;;;;31.70;19.90;;;;;;4301979;33;20074;-39
2021/10/13 09:47:32;;;;;;;;;;;31.80;20.00;;;;;;4299537;33;20015;-39
2021/10/13 09:49:59;;;;;;;;;;;31.80;19.90;;;;;;4299518;33;19971;-37
2021/10/13 09:52:29;;;;;;;;;;;31.80;19.80;;;;;;4299102;33;20418;-39
2021/10/13 09:55:01;;;;;;;;;;;31.90;19.90;;;;;;4298949;33;20563;-38
2021/10/13 09:57:32;;;;;;;;;;;31.90;19.80;;;;;;4299506;33;19983;-37
2021/10/13 10:00:00;;;;;;;;;;;31.90;19.90;;;;;;4299032;33;19989;-39
2021/10/13 10:02:34;;;;;;;;;;;31.90;20.10;;;;;;4299111;33;19968;-38
2021/10/13 10:05:02;;;;;;;;;;;31.90;19.90;;;;;;4287888;33;20503;-37
2021/10/13 10:07:28;;;;;;;;;;;32.00;19.70;;;;;;4287279;33;20085;-38
2021/10/13 10:10:13;;;;;;;;;;;32.00;19.80;;;;;;4299364;33;20001;-38
2021/10/13 10:12:59;;;;;;;;;;;32.10;19.90;;;;;;4298932;33;20398;-38
2021/10/13 10:15:32;;;;;;;;;;;32.10;19.90;;;;;;4298994;33;19979;-39
2021/10/13 10:17:59;;;;;;;;;;;32.10;20.00;;;;;;4298925;33;20448;-38
2021/10/13 10:20:40;;;;;;;;;;;31.90;19.80;;;;;;4314441;32;20380;-37
2021/10/13 10:23:34;;;;;;;;;;;31.90;19.90;;;;;;4360123;32;19998;-38
2021/10/13 10:26:25;;;;;;;;;;;31.80;19.90;;;;;;4357193;32;20355;-37
2021/10/13 10:28:52;;;;;;;;;;;31.90;19.90;;;;;;4359894;32;19966;-38
2021/10/13 10:31:27;;;;;;;;;;;31.90;19.90;;;;;;4360007;32;19970;-38
2021/10/13 10:34:02;;;;;;;;;;;31.90;19.90;;;;;;4359713;32;20443;-37
2021/10/13 10:36:49;;;;;;;;;;;31.80;19.90;;;;;;4360076;32;19958;-38
2021/10/13 10:39:17;;;;;;;;;;;31.80;20.00;;;;;;4349200;32;19959;-38
2021/10/13 10:41:53;;;;;;;;;;;31.80;20.00;;;;;;4360116;32;19965;-38
2021/10/13 10:44:32;;;;;;;;;;;31.70;20.00;;;;;;4359585;32;20410;-38
2021/10/13 10:47:06;;;;;;;;;;;31.70;20.10;;;;;;4371794;32;19962;-37
2021/10/13 10:49:49;;;;;;;;;;;31.60;20.00;;;;;;4374398;32;19962;-38
2021/10/13 10:52:17;;;;;;;;;;;31.60;19.90;;;;;;4375054;32;20471;-38
2021/10/13 10:54:52;;;;;;;;;;;31.50;20.00;;;;;;4374494;32;20382;-38
2021/10/13 10:57:34;;;;;;;;;;;31.20;20.30;;;;;;4374596;32;19958;-37
2021/10/13 11:00:04;;;;;;;;;;;31.10;20.50;;;;;;4374136;32;19970;-38
2021/10/13 11:02:30;;;;;;;;;;;31.10;20.30;;;;;;4360964;32;20421;-37
2021/10/13 11:05:04;;;;;;;;;;;31.10;20.30;;;;;;4374150;32;20395;-38
2021/10/13 11:07:30;;;;;;;;;;;31.00;20.40;;;;;;4374331;32;20374;-38
2021/10/13 11:10:07;;;;;;;;;;;31.00;20.40;;;;;;4374375;32;20082;-37
2021/10/13 11:12:50;;;;;;;;;;;31.00;20.20;;;;;;4374523;32;19964;-37
2021/10/13 11:15:17;;;;;;;;;;;31.00;20.20;;;;;;4374354;32;20450;-37
2021/10/13 11:17:44;;;;;;;;;;;30.90;20.30;;;;;;4374638;32;19974;-38
2021/10/13 11:20:12;;;;;;;;;;;30.90;20.40;;;;;;4374014;32;20071;-38
2021/10/13 11:22:38;;;;;;;;;;;30.90;20.50;;;;;;4374421;32;19981;-39
2021/10/13 11:25:14;;;;;;;;;;;30.90;20.40;;;;;;4360460;32;19993;-38
2021/10/13 11:27:41;;;;;;;;;;;30.80;20.50;;;;;;4374105;32;19961;-37
2021/10/13 11:30:17;;;;;;;;;;;30.80;20.30;;;;;;4359904;32;19981;-38
2021/10/13 11:32:43;;;;;;;;;;;30.90;20.30;;;;;;4374327;32;19970;-38
2021/10/13 11:35:10;;;;;;;;;;;31.00;20.20;;;;;;4360411;32;20477;-39
2021/10/13 11:37:36;;;;;;;;;;;31.20;20.30;;;;;;4373998;32;20347;-39
2021/10/13 11:40:02;;;;;;;;;;;31.30;20.10;;;;;;4374011;32;19969;-37
2021/10/13 11:42:29;;;;;;;;;;;31.40;20.00;;;;;;4374090;32;20042;-38
2021/10/13 11:44:56;;;;;;;;;;;31.40;19.90;;;;;;4373882;32;20347;-39
2021/10/13 11:47:29;;;;;;;;;;;31.40;19.90;;;;;;4359755;32;19959;-38
2021/10/13 11:50:00;;;;;;;;;;;31.40;19.80;;;;;;4358864;32;19970;-40
2021/10/13 11:52:27;;;;;;;;;;;31.40;19.80;;;;;;4359191;32;19990;-38
2021/10/13 11:55:03;;;;;;;;;;;31.40;19.70;;;;;;4358717;32;20381;-37
2021/10/13 11:57:29;;;;;;;;;;;31.50;19.70;;;;;;4358895;32;19954;-38
2021/10/13 12:00:19;;;;;;;;;;;31.50;19.60;;;;;;4358874;32;19981;-38
2021/10/13 12:03:07;;;;;;;;;;;31.50;19.50;;;;;;4345313;32;19970;-38
2021/10/13 12:05:58;;;;;;;;;;;31.50;19.50;;;;;;4346282;32;20110;-38
2021/10/13 12:08:29;;;;;;;;;;;31.50;19.60;;;;;;4358736;32;19964;-39
2021/10/13 12:11:04;;;;;;;;;;;31.50;19.50;;;;;;4358694;32;19997;-39
2021/10/13 12:13:31;;;;;;;;;;;31.40;19.50;;;;;;4311412;33;19998;-38
2021/10/13 12:16:07;;;;;;;;;;;31.30;19.60;;;;;;4299934;33;19972;-39
2021/10/13 12:18:35;;;;;;;;;;;31.30;19.60;;;;;;4312388;33;19994;-39
2021/10/13 12:21:01;;;;;;;;;;;31.20;19.70;;;;;;4311737;33;19974;-38
2021/10/13 12:23:28;;;;;;;;;;;31.10;19.80;;;;;;4311728;33;20441;-38
2021/10/13 12:25:54;;;;;;;;;;;31.00;19.90;;;;;;4311790;33;19974;-39
2021/10/13 12:28:28;;;;;;;;;;;31.00;20.00;;;;;;4300300;33;20059;-38
2021/10/13 12:31:00;;;;;;;;;;;30.90;20.00;;;;;;4311995;33;19981;-39
2021/10/13 12:33:26;;;;;;;;;;;30.80;19.90;;;;;;4312180;33;19979;-38
2021/10/13 12:35:52;;;;;;;;;;;30.70;19.90;;;;;;4312090;33;20527;-38
2021/10/13 12:38:20;;;;;;;;;;;30.60;20.00;;;;;;4312224;33;20404;-38
2021/10/13 12:41:00;;;;;;;;;;;30.50;19.90;;;;;;4311442;33;20509;-38
2021/10/13 12:43:26;;;;;;;;;;;30.30;20.00;;;;;;4311961;33;20065;-42
2021/10/13 12:45:52;;;;;;;;;;;30.20;20.10;;;;;;4304610;33;19973;-38
2021/10/13 12:48:21;;;;;;;;;;;30.10;20.20;;;;;;4326617;33;19979;-38
2021/10/13 12:51:10;;;;;;;;;;;29.90;20.10;;;;;;4340042;32;19958;-39
2021/10/13 12:53:37;;;;;;;;;;;29.90;20.20;;;;;;4358321;32;19969;-40
2021/10/13 12:56:04;;;;;;;;;;;29.70;20.20;;;;;;4358116;32;20375;-39
2021/10/13 12:58:30;;;;;;;;;;;29.70;20.20;;;;;;4358112;32;19969;-38
2021/10/13 13:00:56;;;;;;;;;;;29.60;20.20;;;;;;4357896;32;19986;-39
2021/10/13 13:03:23;;;;;;;;;;;29.50;20.20;;;;;;4358327;32;19998;-39
2021/10/13 13:05:52;;;;;;;;;;;29.50;20.30;;;;;;4358409;32;20039;-37
2021/10/13 13:08:19;;;;;;;;;;;29.40;20.20;;;;;;4358619;32;19982;-38
2021/10/13 13:10:46;;;;;;;;;;;29.30;20.20;;;;;;4358123;32;20005;-37
2021/10/13 13:13:12;;;;;;;;;;;29.00;20.20;;;;;;4358792;32;19959;-37
2021/10/13 13:15:38;;;;;;;;;;;28.90;20.20;;;;;;4360610;32;20406;-38
2021/10/13 13:18:05;;;;;;;;;;;28.70;20.20;;;;;;4361389;32;20048;-38
2021/10/13 13:20:31;;;;;;;;;;;28.60;20.20;;;;;;4370148;32;20513;-37
2021/10/13 13:22:57;;;;;;;;;;;28.50;20.30;;;;;;4376666;32;19971;-38
2021/10/13 13:25:24;;;;;;;;;;;28.40;20.40;;;;;;4376102;32;19966;-38
2021/10/13 13:27:50;;;;;;;;;;;28.30;20.40;;;;;;4375552;32;19954;-38
2021/10/13 13:30:16;;;;;;;;;;;28.10;20.50;;;;;;4375904;32;20457;-37
2021/10/13 13:32:43;;;;;;;;;;;27.90;20.60;;;;;;4375929;32;19994;-37
2021/10/13 13:35:09;;;;;;;;;;;27.80;20.70;;;;;;4361771;32;19973;-37
2021/10/13 13:37:38;;;;;;;;;;;27.70;20.70;;;;;;4375905;32;19977;-36
2021/10/13 13:40:06;;;;;;;;;;;27.60;20.80;;;;;;4375759;32;20407;-37
2021/10/13 13:42:32;;;;;;;;;;;27.40;20.80;;;;;;4376147;32;19982;-39
2021/10/13 13:44:58;;;;;;;;;;;27.20;20.90;;;;;;4375491;32;20390;-38
2021/10/13 13:47:25;;;;;;;;;;;26.90;20.90;;;;;;4347149;32;20488;-37
2021/10/13 13:49:51;;;;;;;;;;;26.70;21.10;;;;;;4360330;32;19989;-37
2021/10/13 13:52:17;;;;;;;;;;;26.40;21.10;;;;;;4360646;32;19962;-36
2021/10/13 13:54:43;;;;;;;;;;;26.20;21.20;;;;;;4360803;32;20425;-38
2021/10/13 13:57:09;;;;;;;;;;;26.00;21.40;;;;;;4360662;32;20047;-38
2021/10/13 13:59:36;;;;;;;;;;;25.80;21.60;;;;;;4360487;32;20076;-38
2021/10/13 14:02:02;;;;;;;;;;;25.60;21.80;;;;;;4360493;32;20042;-37
2021/10/13 14:04:28;;;;;;;;;;;25.40;21.80;;;;;;4360555;32;19996;-39
2021/10/13 14:06:55;;;;;;;;;;;25.20;21.90;;;;;;4360608;32;20053;-37
2021/10/13 14:09:21;;;;;;;;;;;25.00;22.10;;;;;;4346199;32;20120;-37
2021/10/13 14:11:48;;;;;;;;;;;24.80;22.20;;;;;;4360136;32;20437;-36
2021/10/13 14:14:14;;;;;;;;;;;24.60;22.30;;;;;;4360317;32;19963;-36
2021/10/13 14:16:40;;;;;;;;;;;24.40;22.40;;;;;;4360085;32;20010;-36
2021/10/13 14:19:07;;;;;;;;;;;24.20;22.60;;;;;;4359592;32;19974;-37
2021/10/13 14:21:33;;;;;;;;;;;24.00;22.90;;;;;;4360084;32;20398;-38
2021/10/13 14:23:59;;;;;;;;;;;23.80;23.00;;;;;;4360483;32;19962;-37
2021/10/13 14:26:25;;;;;;;;;;;23.70;23.10;;;;;;4359224;32;19973;-38